createdAt,value
2022-08-19T00:01:59.002Z,17.50
2022-08-19T00:04:30.447Z,17.58
2022-08-19T00:07:00.000Z,17.38
2022-08-19T00:09:28.890Z,17.58
2022-08-19T00:11:58.739Z,17.58
2022-08-19T00:14:27.745Z,17.25
2022-08-19T00:16:55.797Z,17.17
2022-08-19T00:19:24.570Z,17.45
2022-08-19T00:21:52.829Z,16.00
2022-08-19T00:24:20.741Z,18.65
2022-08-19T00:26:48.630Z,18.10
2022-08-19T00:29:18.330Z,18.00
2022-08-19T00:31:46.561Z,18.05
2022-08-19T00:34:15.130Z,17.35
2022-08-19T00:36:43.743Z,17.23
2022-08-19T00:39:13.077Z,17.73
2022-08-19T00:41:41.763Z,17.25
2022-08-19T00:44:20.898Z,17.45
2022-08-19T00:46:58.226Z,18.73
2022-08-19T00:49:53.882Z,16.92
2022-08-19T00:52:34.443Z,17.75
2022-08-19T00:55:06.191Z,18.35
2022-08-19T00:57:38.653Z,17.60
2022-08-19T01:00:12.844Z,18.77
2022-08-19T01:02:42.539Z,17.00
2022-08-19T01:05:14.173Z,17.25
2022-08-19T01:07:42.417Z,17.77
2022-08-19T01:10:14.015Z,17.45
2022-08-19T01:12:41.950Z,17.85
2022-08-19T01:15:12.133Z,18.17
2022-08-19T01:17:41.809Z,17.98
2022-08-19T01:20:21.783Z,17.98
2022-08-19T01:22:53.002Z,18.85
2022-08-19T01:25:25.797Z,18.05
2022-08-19T01:27:54.898Z,17.70
2022-08-19T01:30:32.079Z,17.52
2022-08-19T01:33:00.864Z,16.90
2022-08-19T01:35:31.176Z,17.33
2022-08-19T01:38:08.328Z,17.35
2022-08-19T01:40:39.280Z,17.67
2022-08-19T01:43:07.454Z,17.40
2022-08-19T01:45:36.041Z,17.35
2022-08-19T01:48:04.128Z,17.75
2022-08-19T01:50:34.227Z,16.73
2022-08-19T01:53:06.671Z,17.48
2022-08-19T01:55:41.652Z,18.15
2022-08-19T01:58:14.969Z,17.02
2022-08-19T02:00:44.039Z,18.17
2022-08-19T02:03:12.441Z,17.30
2022-08-19T02:05:41.680Z,17.50
2022-08-19T02:08:09.881Z,17.38
2022-08-19T02:10:43.644Z,17.65
2022-08-19T02:13:12.993Z,17.48
2022-08-19T02:15:43.575Z,18.15
2022-08-19T02:18:11.618Z,16.58
2022-08-19T02:20:40.447Z,17.88
2022-08-19T02:23:13.790Z,17.88
2022-08-19T02:25:49.037Z,17.92
2022-08-19T02:28:18.944Z,18.30
2022-08-19T02:30:49.017Z,17.45
2022-08-19T02:33:17.108Z,17.83
2022-08-19T02:35:46.769Z,18.50
2022-08-19T02:38:27.861Z,18.08
2022-08-19T02:41:01.456Z,18.10
2022-08-19T02:43:33.732Z,18.10
2022-08-19T02:46:11.637Z,18.10
2022-08-19T02:48:39.271Z,17.80
2022-08-19T02:51:07.031Z,18.42
2022-08-19T02:53:34.673Z,19.80
2022-08-19T02:56:02.353Z,19.73
2022-08-19T02:58:30.299Z,18.70
2022-08-19T03:01:00.817Z,19.40
2022-08-19T03:03:28.761Z,18.73
2022-08-19T03:06:16.613Z,19.27
2022-08-19T03:08:47.094Z,18.27
2022-08-19T03:11:25.022Z,17.85
2022-08-19T03:13:54.316Z,17.75
2022-08-19T03:16:23.762Z,17.80
2022-08-19T03:18:52.018Z,17.50
2022-08-19T03:21:24.767Z,17.38
2022-08-19T03:23:56.449Z,17.02
2022-08-19T03:26:24.454Z,17.92
2022-08-19T03:28:58.152Z,18.17
2022-08-19T03:31:43.552Z,18.23
2022-08-19T03:34:18.733Z,16.67
2022-08-19T03:36:47.945Z,17.20
2022-08-19T03:39:16.440Z,18.33
2022-08-19T03:41:48.279Z,16.40
2022-08-19T03:44:21.612Z,17.43
2022-08-19T03:46:52.503Z,18.33
2022-08-19T03:49:27.135Z,16.57
2022-08-19T03:51:58.031Z,16.77
2022-08-19T03:54:27.128Z,17.97
2022-08-19T03:56:56.905Z,17.97
2022-08-19T03:59:30.475Z,16.87
2022-08-19T04:02:00.605Z,17.87
2022-08-19T04:04:29.678Z,16.30
2022-08-19T04:06:57.850Z,15.73
2022-08-19T04:09:26.640Z,18.00
2022-08-19T04:11:56.059Z,16.93
2022-08-19T04:14:30.992Z,17.10
2022-08-19T04:17:00.509Z,16.10
2022-08-19T04:19:31.011Z,15.67
2022-08-19T04:22:01.365Z,15.30
2022-08-19T04:24:29.287Z,16.42
2022-08-19T04:26:57.136Z,16.37
2022-08-19T04:29:26.444Z,15.87
2022-08-19T04:31:56.455Z,14.57
2022-08-19T04:34:27.230Z,16.50
2022-08-19T04:36:58.878Z,15.73
2022-08-19T04:39:58.674Z,15.40
2022-08-19T04:42:41.529Z,15.03
2022-08-19T04:45:17.521Z,16.40
2022-08-19T04:47:48.272Z,15.53
2022-08-19T04:50:29.698Z,15.60
2022-08-19T04:52:57.710Z,16.23
2022-08-19T04:55:28.575Z,15.00
2022-08-19T04:57:56.322Z,15.90
2022-08-19T05:00:24.696Z,14.97
2022-08-19T05:02:52.595Z,14.80
2022-08-19T05:05:20.745Z,15.70
2022-08-19T05:07:48.567Z,15.10
2022-08-19T05:10:16.338Z,15.67
2022-08-19T05:12:43.968Z,14.87
2022-08-19T05:15:14.856Z,15.17
2022-08-19T05:18:02.538Z,15.50
2022-08-19T05:20:48.873Z,14.87
2022-08-19T05:23:21.915Z,16.50
2022-08-19T05:25:52.515Z,15.53
2022-08-19T05:28:21.339Z,15.00
2022-08-19T05:30:51.396Z,14.77
2022-08-19T05:33:19.740Z,14.90
2022-08-19T05:35:49.212Z,14.55
2022-08-19T05:38:20.741Z,14.33
2022-08-19T05:40:49.016Z,15.07
2022-08-19T05:43:17.197Z,15.00
2022-08-19T05:45:45.631Z,15.33
2022-08-19T05:48:14.202Z,14.77
2022-08-19T05:50:42.792Z,15.30
2022-08-19T05:53:10.900Z,15.30
2022-08-19T05:55:41.357Z,14.30
2022-08-19T05:58:09.151Z,15.45
2022-08-19T06:00:38.225Z,15.20
2022-08-19T06:03:11.914Z,15.07
2022-08-19T06:05:46.199Z,14.63
2022-08-19T06:08:20.547Z,14.30
2022-08-19T06:11:33.483Z,14.43
2022-08-19T06:14:05.214Z,14.50
2022-08-19T06:16:36.125Z,14.27
2022-08-19T06:19:08.364Z,13.53
2022-08-19T06:21:40.873Z,14.13
2022-08-19T06:24:10.343Z,14.07
2022-08-19T06:26:40.747Z,14.85
2022-08-19T06:29:10.457Z,13.90
2022-08-19T06:31:54.600Z,13.80
2022-08-19T06:34:22.647Z,14.25
2022-08-19T06:36:52.585Z,13.57
2022-08-19T06:39:27.126Z,14.45
2022-08-19T06:41:58.991Z,13.75
2022-08-19T06:44:29.355Z,12.80
2022-08-19T06:46:59.563Z,14.43
2022-08-19T06:49:32.614Z,13.00
2022-08-19T06:52:01.971Z,13.38
2022-08-19T06:54:32.570Z,12.23
2022-08-19T06:57:06.012Z,14.43
2022-08-19T06:59:34.513Z,15.95
2022-08-19T07:02:08.603Z,16.30
2022-08-19T07:04:37.109Z,16.48
2022-08-19T07:07:20.970Z,17.92
2022-08-19T07:09:51.539Z,17.55
2022-08-19T07:12:27.054Z,19.02
2022-08-19T07:14:56.726Z,18.30
2022-08-19T07:17:25.621Z,18.40
2022-08-19T07:19:54.510Z,17.80
2022-08-19T07:22:25.913Z,17.80
2022-08-19T07:24:53.619Z,19.73
2022-08-19T07:27:24.842Z,19.55
2022-08-19T07:29:56.065Z,19.00
2022-08-19T07:32:28.511Z,19.48
2022-08-19T07:34:57.157Z,18.70
2022-08-19T07:37:32.424Z,19.10
2022-08-19T07:40:02.410Z,19.33
2022-08-19T07:42:33.108Z,17.95
2022-08-19T07:45:00.769Z,20.00
2022-08-19T07:47:49.241Z,20.33
2022-08-19T07:50:18.870Z,20.27
2022-08-19T07:52:49.193Z,19.38
2022-08-19T07:55:41.390Z,20.05
2022-08-19T07:58:08.046Z,20.20
2022-08-19T08:00:36.730Z,19.88
2022-08-19T08:03:04.790Z,19.55
2022-08-19T08:05:51.253Z,19.30
2022-08-19T08:08:37.453Z,19.75
2022-08-19T08:11:15.919Z,17.67
2022-08-19T08:13:45.329Z,18.17
2022-08-19T08:16:14.152Z,19.52
2022-08-19T08:18:50.672Z,18.08
2022-08-19T08:21:23.905Z,19.45
2022-08-19T08:23:56.033Z,18.10
2022-08-19T08:26:24.544Z,20.65
2022-08-19T08:28:53.185Z,21.42
2022-08-19T08:31:21.369Z,20.08
2022-08-19T08:33:49.473Z,20.17
2022-08-19T08:36:18.009Z,21.23
2022-08-19T08:38:46.966Z,21.00
2022-08-19T08:41:45.621Z,19.33
2022-08-19T08:44:22.017Z,19.58
2022-08-19T08:46:57.651Z,19.95
2022-08-19T08:49:29.326Z,19.25
2022-08-19T08:52:12.099Z,19.52
2022-08-19T08:54:55.290Z,17.85
2022-08-19T08:57:40.704Z,19.65
2022-08-19T09:00:16.149Z,20.77
2022-08-19T09:02:45.369Z,20.88
2022-08-19T09:05:22.198Z,21.75
2022-08-19T09:08:25.055Z,21.25
2022-08-19T09:10:56.219Z,21.70
2022-08-19T09:13:39.993Z,21.83
2022-08-19T09:16:15.428Z,20.63
2022-08-19T09:18:53.730Z,20.10
2022-08-19T09:21:25.999Z,18.77
2022-08-19T09:23:59.545Z,16.83
2022-08-19T09:26:47.499Z,16.58
2022-08-19T09:29:15.864Z,16.27
2022-08-19T09:31:45.356Z,14.35
2022-08-19T09:34:21.130Z,14.60
2022-08-19T09:36:56.129Z,13.00
2022-08-19T09:39:23.865Z,12.68
2022-08-19T09:41:51.565Z,12.10
2022-08-19T09:44:21.315Z,11.77
2022-08-19T09:46:50.098Z,12.05
2022-08-19T09:49:24.602Z,10.93
2022-08-19T09:51:55.350Z,10.98
2022-08-19T09:54:25.356Z,10.63
2022-08-19T09:56:54.166Z,9.55
2022-08-19T09:59:22.117Z,9.52
2022-08-19T10:01:49.907Z,9.02
2022-08-19T10:04:22.223Z,9.10
2022-08-19T10:06:53.689Z,9.00
2022-08-19T10:09:33.778Z,9.00
2022-08-19T10:12:04.479Z,8.35
2022-08-19T10:14:34.360Z,8.93
2022-08-19T10:17:04.696Z,7.60
2022-08-19T10:19:54.996Z,7.50
2022-08-19T10:22:25.787Z,8.13
2022-08-19T10:24:53.832Z,6.97
2022-08-19T10:27:22.110Z,7.45
2022-08-19T10:29:49.901Z,7.60
2022-08-19T10:32:17.726Z,7.10
2022-08-19T10:34:48.345Z,7.18
2022-08-19T10:37:29.183Z,5.78
2022-08-19T10:39:59.297Z,6.53
2022-08-19T10:42:26.964Z,5.55
2022-08-19T10:44:54.718Z,6.43
2022-08-19T10:47:25.477Z,5.78
2022-08-19T10:50:15.391Z,5.93
2022-08-19T10:52:49.897Z,6.15
2022-08-19T10:55:41.486Z,6.35
2022-08-19T10:58:14.846Z,5.97
2022-08-19T11:00:52.005Z,6.20
2022-08-19T11:03:19.739Z,5.88
2022-08-19T11:05:47.464Z,6.18
2022-08-19T11:08:23.150Z,5.75
2022-08-19T11:10:56.273Z,5.35
2022-08-19T11:13:24.353Z,6.10
2022-08-19T11:16:10.979Z,4.95
2022-08-19T11:18:43.727Z,4.60
2022-08-19T11:21:32.710Z,4.13
2022-08-19T11:24:07.131Z,4.30
2022-08-19T11:26:35.609Z,4.90
2022-08-19T11:29:07.426Z,5.80
2022-08-19T11:31:37.119Z,6.13
2022-08-19T11:34:08.122Z,5.47
2022-08-19T11:36:46.565Z,5.75
2022-08-19T11:39:17.414Z,5.30
2022-08-19T11:41:45.463Z,5.40
2022-08-19T11:44:14.953Z,5.13
2022-08-19T11:46:47.568Z,5.07
2022-08-19T11:49:19.646Z,4.82
2022-08-19T11:51:48.038Z,5.35
2022-08-19T11:54:17.233Z,5.38
2022-08-19T11:56:46.553Z,5.50
2022-08-19T11:59:15.185Z,5.90
2022-08-19T12:01:44.214Z,6.00
2022-08-19T12:04:12.161Z,5.90
2022-08-19T12:06:42.199Z,5.70
2022-08-19T12:09:11.267Z,5.70
2022-08-19T12:11:40.542Z,5.93
2022-08-19T12:14:14.799Z,5.82
2022-08-19T12:16:49.185Z,5.60
2022-08-19T12:19:22.109Z,5.70
2022-08-19T12:21:51.409Z,6.22
2022-08-19T12:24:24.022Z,5.53
2022-08-19T12:26:53.346Z,5.95
2022-08-19T12:29:23.909Z,5.88
2022-08-19T12:31:52.647Z,6.07
2022-08-19T12:34:21.111Z,5.50
2022-08-19T12:36:50.345Z,5.68
2022-08-19T12:39:18.529Z,5.70
2022-08-19T12:41:51.591Z,5.95
2022-08-19T12:44:32.128Z,5.85
2022-08-19T12:47:01.647Z,6.00
2022-08-19T12:49:54.591Z,6.38
2022-08-19T12:52:26.727Z,6.35
2022-08-19T12:54:56.235Z,6.35
2022-08-19T12:57:32.254Z,5.82
2022-08-19T13:00:12.791Z,5.80
2022-08-19T13:02:46.563Z,6.00
2022-08-19T13:05:17.814Z,6.47
2022-08-19T13:07:45.739Z,6.13
2022-08-19T13:10:16.625Z,7.47
2022-08-19T13:12:46.036Z,7.25
2022-08-19T13:15:15.173Z,6.47
2022-08-19T13:17:43.238Z,6.38
2022-08-19T13:20:12.042Z,6.15
2022-08-19T13:22:40.017Z,6.38
2022-08-19T13:25:10.977Z,6.72
2022-08-19T13:27:39.893Z,6.95
2022-08-19T13:30:29.006Z,6.25
2022-08-19T13:33:11.757Z,5.93
2022-08-19T13:35:44.037Z,6.38
2022-08-19T13:38:13.677Z,6.57
2022-08-19T13:40:41.900Z,7.43
2022-08-19T13:43:22.291Z,7.35
2022-08-19T13:45:54.787Z,6.90
2022-08-19T13:48:24.518Z,6.70
2022-08-19T13:50:52.402Z,6.75
2022-08-19T13:53:20.208Z,6.38
2022-08-19T13:55:48.146Z,6.00
2022-08-19T13:58:15.831Z,5.50
2022-08-19T14:00:46.324Z,5.35
2022-08-19T14:03:14.255Z,5.75
2022-08-19T14:05:42.007Z,5.97
2022-08-19T14:08:10.237Z,5.75
2022-08-19T14:10:37.911Z,6.28
2022-08-19T14:13:05.694Z,6.95
2022-08-19T14:15:35.725Z,7.18
2022-08-19T14:18:03.639Z,7.07
2022-08-19T14:20:31.286Z,6.20
2022-08-19T14:23:00.321Z,5.47
2022-08-19T14:25:32.903Z,6.00
2022-08-19T14:28:01.494Z,5.82
2022-08-19T14:30:32.587Z,6.80
2022-08-19T14:33:01.939Z,7.10
2022-08-19T14:35:30.522Z,7.28
2022-08-19T14:37:58.782Z,6.95
2022-08-19T14:40:30.421Z,6.53
2022-08-19T14:43:04.806Z,6.75
2022-08-19T14:45:40.760Z,6.10
2022-08-19T14:48:17.844Z,5.90
2022-08-19T14:50:47.415Z,6.88
2022-08-19T14:53:17.687Z,6.05
2022-08-19T14:55:46.841Z,6.50
2022-08-19T14:58:29.515Z,6.30
2022-08-19T15:01:01.049Z,6.30
2022-08-19T15:03:29.935Z,5.97
2022-08-19T15:05:58.351Z,6.30
2022-08-19T15:08:27.552Z,6.10
2022-08-19T15:10:56.739Z,6.40
2022-08-19T15:13:25.607Z,6.07
2022-08-19T15:15:53.914Z,6.45
2022-08-19T15:18:22.637Z,6.30
2022-08-19T15:20:50.924Z,6.68
2022-08-19T15:23:20.777Z,7.47
2022-08-19T15:25:49.409Z,7.57
2022-08-19T15:28:17.336Z,7.53
2022-08-19T15:30:48.729Z,7.20
2022-08-19T15:33:19.588Z,6.00
2022-08-19T15:35:48.495Z,6.07
2022-08-19T15:38:17.846Z,6.43
2022-08-19T15:40:48.892Z,6.15
2022-08-19T15:43:18.207Z,6.70
2022-08-19T15:45:49.258Z,7.20
2022-08-19T15:48:17.354Z,7.05
2022-08-19T15:50:45.030Z,7.35
2022-08-19T15:53:12.730Z,7.80
2022-08-19T15:55:45.714Z,7.45
2022-08-19T15:58:33.944Z,7.70
2022-08-19T16:01:27.012Z,6.95
2022-08-19T16:04:16.323Z,7.55
2022-08-19T16:06:50.016Z,7.50
2022-08-19T16:09:23.666Z,7.68
2022-08-19T16:12:02.267Z,7.22
2022-08-19T16:14:32.721Z,7.13
2022-08-19T16:17:00.435Z,7.57
2022-08-19T16:19:28.083Z,6.97
2022-08-19T16:21:56.747Z,7.63
2022-08-19T16:24:28.215Z,7.05
2022-08-19T16:26:56.816Z,6.82
2022-08-19T16:29:33.609Z,7.38
2022-08-19T16:32:09.885Z,7.25
2022-08-19T16:34:40.025Z,7.85
2022-08-19T16:37:08.332Z,7.35
2022-08-19T16:39:36.364Z,7.47
2022-08-19T16:42:07.353Z,7.35
2022-08-19T16:44:36.626Z,8.15
2022-08-19T16:47:04.375Z,7.70
2022-08-19T16:49:53.390Z,7.90
2022-08-19T16:52:21.145Z,8.30
2022-08-19T16:54:48.804Z,8.88
2022-08-19T16:57:16.872Z,8.90
2022-08-19T16:59:48.802Z,8.80
2022-08-19T17:02:18.757Z,8.68
2022-08-19T17:04:57.703Z,8.45
2022-08-19T17:07:33.080Z,8.82
2022-08-19T17:10:11.703Z,9.05
2022-08-19T17:12:43.479Z,7.90
2022-08-19T17:15:11.130Z,8.18
2022-08-19T17:17:38.736Z,8.07
2022-08-19T17:20:08.057Z,8.35
2022-08-19T17:22:37.081Z,8.18
2022-08-19T17:25:05.037Z,7.72
2022-08-19T17:27:32.807Z,9.15
2022-08-19T17:30:05.242Z,9.05
2022-08-19T17:32:34.822Z,8.60
2022-08-19T17:35:04.575Z,9.65
2022-08-19T17:37:32.704Z,9.38
2022-08-19T17:40:02.967Z,9.27
2022-08-19T17:42:31.942Z,9.10
2022-08-19T17:44:59.829Z,8.77
2022-08-19T17:47:28.420Z,8.82
2022-08-19T17:49:56.810Z,8.98
2022-08-19T17:52:25.569Z,8.13
2022-08-19T17:54:55.772Z,7.70
2022-08-19T17:57:23.940Z,7.70
2022-08-19T17:59:55.302Z,7.80
2022-08-19T18:02:24.944Z,7.93
2022-08-19T18:04:52.589Z,7.93
2022-08-19T18:07:21.638Z,8.07
2022-08-19T18:09:54.722Z,7.20
2022-08-19T18:12:26.428Z,7.95
2022-08-19T18:14:55.804Z,7.63
2022-08-19T18:17:24.401Z,7.95
2022-08-19T18:19:52.223Z,8.10
2022-08-19T18:22:35.693Z,7.90
2022-08-19T18:25:09.932Z,7.78
2022-08-19T18:27:37.764Z,8.00
2022-08-19T18:30:11.826Z,8.00
2022-08-19T18:32:42.245Z,7.82
2022-08-19T18:35:13.336Z,8.48
2022-08-19T18:37:41.999Z,8.15
2022-08-19T18:40:35.462Z,8.52
2022-08-19T18:43:22.922Z,8.13
2022-08-19T18:46:09.687Z,8.13
2022-08-19T18:48:56.967Z,7.80
2022-08-19T18:51:29.850Z,8.00
2022-08-19T18:54:01.790Z,8.25
2022-08-19T18:56:32.314Z,8.65
2022-08-19T18:59:00.982Z,8.05
2022-08-19T19:01:36.621Z,7.90
2022-08-19T19:04:16.368Z,7.20
2022-08-19T19:06:45.391Z,7.50
2022-08-19T19:09:17.915Z,6.95
2022-08-19T19:11:48.393Z,7.45
2022-08-19T19:14:47.546Z,7.18
2022-08-19T19:17:13.687Z,6.38
2022-08-19T19:19:42.796Z,5.88
2022-08-19T19:22:14.724Z,5.57
2022-08-19T19:24:45.483Z,5.15
2022-08-19T19:27:14.821Z,5.13
2022-08-19T19:29:42.759Z,4.68
2022-08-19T19:32:18.940Z,4.63
2022-08-19T19:34:46.861Z,4.40
2022-08-19T19:37:14.682Z,4.60
2022-08-19T19:39:45.958Z,4.10
2022-08-19T19:42:20.526Z,4.00
2022-08-19T19:44:54.796Z,3.97
2022-08-19T19:47:28.365Z,3.80
2022-08-19T19:50:15.170Z,4.00
2022-08-19T19:52:46.057Z,3.40
2022-08-19T19:55:17.943Z,3.30
2022-08-19T19:57:47.864Z,2.80
2022-08-19T20:00:18.703Z,2.50
2022-08-19T20:02:50.183Z,2.53
2022-08-19T20:05:21.304Z,2.60
2022-08-19T20:08:09.967Z,2.10
2022-08-19T20:10:38.759Z,2.58
2022-08-19T20:13:08.153Z,2.40
2022-08-19T20:15:40.357Z,2.40
2022-08-19T20:18:11.298Z,2.38
2022-08-19T20:20:39.058Z,2.17
2022-08-19T20:23:06.817Z,2.20
2022-08-19T20:25:34.668Z,2.33
2022-08-19T20:28:05.495Z,2.00
2022-08-19T20:30:33.305Z,2.60
2022-08-19T20:33:06.763Z,2.20
2022-08-19T20:35:39.580Z,2.30
2022-08-19T20:38:08.676Z,2.03
2022-08-19T20:40:37.798Z,2.25
2022-08-19T20:43:13.236Z,2.15
2022-08-19T20:45:41.017Z,2.05
2022-08-19T20:48:10.457Z,1.90
2022-08-19T20:50:38.969Z,1.90
2022-08-19T20:53:18.172Z,2.10
2022-08-19T20:55:52.202Z,2.15
2022-08-19T20:58:22.932Z,1.92
2022-08-19T21:00:52.969Z,2.00
2022-08-19T21:03:25.312Z,2.35
2022-08-19T21:05:56.516Z,2.30
2022-08-19T21:08:25.446Z,1.80
2022-08-19T21:10:54.326Z,1.75
2022-08-19T21:13:22.902Z,2.10
2022-08-19T21:15:51.424Z,1.77
2022-08-19T21:18:21.257Z,1.90
2022-08-19T21:20:50.322Z,1.75
2022-08-19T21:23:21.853Z,2.25
2022-08-19T21:25:54.937Z,1.80
2022-08-19T21:28:35.550Z,2.03
2022-08-19T21:31:09.135Z,1.70
2022-08-19T21:33:38.135Z,1.67
2022-08-19T21:36:06.479Z,1.60
2022-08-19T21:38:34.133Z,1.55
2022-08-19T21:41:05.965Z,1.75
2022-08-19T21:43:35.951Z,2.25
2022-08-19T21:46:04.460Z,1.70
2022-08-19T21:48:32.838Z,1.58
2022-08-19T21:51:00.422Z,1.42
2022-08-19T21:53:31.503Z,1.40
2022-08-19T21:56:03.518Z,1.52
2022-08-19T21:58:31.234Z,1.30
2022-08-19T22:01:00.073Z,1.50
2022-08-19T22:03:28.345Z,1.33
2022-08-19T22:05:56.026Z,1.30
2022-08-19T22:08:23.648Z,1.48
2022-08-19T22:10:51.381Z,1.42
2022-08-19T22:13:20.499Z,1.50
2022-08-19T22:15:54.777Z,1.27
2022-08-19T22:18:22.552Z,1.40
2022-08-19T22:20:50.598Z,1.40
2022-08-19T22:23:18.611Z,1.50
2022-08-19T22:25:47.323Z,1.50
2022-08-19T22:28:19.074Z,1.25
2022-08-19T22:30:55.934Z,1.55
2022-08-19T22:33:25.747Z,1.45
2022-08-19T22:35:53.525Z,1.60
2022-08-19T22:38:21.997Z,1.70
2022-08-19T22:40:50.880Z,1.65
2022-08-19T22:43:26.070Z,1.70
2022-08-19T22:45:55.518Z,1.60
2022-08-19T22:48:25.673Z,1.70
2022-08-19T22:51:12.886Z,1.50
2022-08-19T22:53:43.065Z,1.70
2022-08-19T22:56:15.380Z,1.60
2022-08-19T22:58:44.127Z,1.80
2022-08-19T23:01:27.162Z,1.70
2022-08-19T23:03:59.736Z,1.55
2022-08-19T23:06:33.920Z,1.80
2022-08-19T23:09:06.743Z,1.67
2022-08-19T23:11:41.770Z,1.67
2022-08-19T23:14:11.268Z,1.60
2022-08-19T23:16:39.564Z,1.58
2022-08-19T23:19:10.442Z,1.60
2022-08-19T23:21:42.363Z,1.58
2022-08-19T23:24:12.955Z,1.75
2022-08-19T23:27:03.465Z,1.92
2022-08-19T23:29:50.833Z,1.52
2022-08-19T23:32:20.317Z,1.60
2022-08-19T23:34:48.526Z,1.20
2022-08-19T23:37:16.410Z,1.40
2022-08-19T23:39:44.624Z,1.67
2022-08-19T23:42:13.738Z,1.50
2022-08-19T23:44:52.351Z,1.30
2022-08-19T23:47:34.496Z,1.20
2022-08-19T23:50:19.450Z,1.52
2022-08-19T23:53:05.846Z,1.20
2022-08-19T23:55:41.958Z,1.40
2022-08-19T23:58:12.880Z,1.30
